• Join FlightAware (Why Join?)
  • Login
  • US Flag 
11:48AM EST


 

Airport Tracker/Info


-or-


 

Live Flight TrackerFlight Track Log ✈ DAL6066 ✈ 06-Sep-2013 ✈ KDTW - KSYR

Flight Track Log - Related Links

Times and Time Zones

All times are in EDT time to prevent confusion due to time zone crossing. See the DAL6066 flight status page for this flight to view local times or setup timezone preferences in your user account.

Time Position Orientation Groundspeed Altitude Reporting Facility
EDT Latitude Longitude Course Direction KTS MPH feet Rate Location/Type
06:23PM 42.1953 -83.3581 84° East 162 186 1,400  Level Cleveland Center
06:23PM 42.1953 -83.3581 84° East 162 186 1,400 1,800 Level Cleveland Center
06:24PM 42.1539 -83.3506 172° South 206 237 2,900 1,800 Climbing Cleveland Center
06:24PM 42.1539 -83.3506 172° South 206 237 2,900 1,620 Level Cleveland Center
06:25PM 42.0892 -83.3506 180° South 261 300 4,600 1,620 Climbing Cleveland Center
06:25PM 42.0892 -83.3506 180° South 261 300 4,600 2,460 Level Cleveland Center
06:26PM 42.0256 -83.3031 151° Southeast 279 321 7,400 2,460 Climbing Cleveland Center
06:26PM 42.0256 -83.3031 151° Southeast 279 321 7,400 1,500 Level Cleveland Center
06:27PM 42.2968 -82.8094 90° East  Level Estimated
06:27PM 42.2968 -82.8094 90° East  Level Estimated
06:28PM 42.3175 -82.6732 87° East  Level Estimated
06:28PM 42.3175 -82.6732 87° East  Level Estimated
06:28PM 42.0858 -83.1350 64° Northeast 280 322 10,000  Level Cleveland Center
06:28PM 42.0858 -83.1350 64° Northeast 280 322 10,000 1,800 Level Cleveland Center
06:29PM 42.3282 -82.5349 84° East  Level FlightAware Approximate
06:29PM 42.3282 -82.5349 84° East  Level FlightAware Approximate
06:29PM 42.1297 -83.0275 61° Northeast 295 339 11,800  Level Cleveland Center
06:29PM 42.1297 -83.0275 61° Northeast 295 339 11,800 2,040 Level Cleveland Center
06:30PM 42.1694 -82.9336 60° Northeast 317 365 13,900 2,040 Climbing Cleveland Center
06:30PM 42.1694 -82.9336 60° Northeast 317 365 13,900 1,920 Level Cleveland Center
06:31PM 42.2131 -82.8289 61° Northeast 323 372 15,800 1,920 Climbing Cleveland Center
06:31PM 42.2131 -82.8289 61° Northeast 323 372 15,800 1,560 Level Cleveland Center
06:32PM 42.2569 -82.7208 61° Northeast 323 372 17,400 1,560 Climbing Cleveland Center
06:32PM 42.2569 -82.7208 61° Northeast 323 372 17,400 1,500 Level Cleveland Center
06:33PM 42.3006 -82.6156 61° Northeast 323 372 18,900 1,500 Climbing Cleveland Center
06:33PM 42.3006 -82.6156 61° Northeast 323 372 18,900 1,500 Level Cleveland Center
06:34PM 42.3461 -82.5075 60° Northeast 323 372 20,400 1,500 Climbing Cleveland Center
06:34PM 42.3461 -82.5075 60° Northeast 323 372 20,400 1,200 Level Cleveland Center
06:35PM 42.3669 -82.3789 78° East 323 372 21,600 1,200 Climbing Cleveland Center
06:35PM 42.3669 -82.3789 78° East 323 372 21,600 1,260 Level Cleveland Center
06:36PM 42.3731 -82.2414 87° East 340 391 22,900 1,260 Climbing Cleveland Center
06:36PM 42.3731 -82.2414 87° East 340 391 22,900 1,260 Level Cleveland Center
06:37PM 42.3836 -82.0869 85° East 365 420 24,200 1,260 Climbing Cleveland Center
06:37PM 42.3836 -82.0869 85° East 365 420 24,200 1,260 Level Cleveland Center
06:38PM 42.3958 -81.9411 83° East 378 435 25,500 1,260 Climbing Cleveland Center
06:38PM 42.3958 -81.9411 83° East 378 435 25,500 1,200 Level Cleveland Center
06:39PM 42.4142 -81.8008 80° East 383 441 26,700 1,200 Climbing Cleveland Center
06:39PM 42.4142 -81.8008 80° East 383 441 26,700 1,260 Level Cleveland Center
06:40PM 42.4303 -81.6550 81° East 389 448 28,000 1,260 Climbing Cleveland Center
06:40PM 42.4303 -81.6550 81° East 389 448 28,000 900 Level Cleveland Center
06:41PM 42.4458 -81.5286 80° East 389 448 28,900 900 Climbing Cleveland Center
06:41PM 42.4458 -81.5286 80° East 389 448 28,900 60 Level Cleveland Center
06:42PM 42.4636 -81.3742 81° East 404 465 29,000 60 Climbing Cleveland Center
06:42PM 42.4636 -81.3742 81° East 404 465 29,000  Level Cleveland Center
06:43PM 42.4836 -81.2053 81° East 429 494 29,000  Level Cleveland Center
06:43PM 42.4836 -81.2053 81° East 429 494 29,000  Level Cleveland Center
06:44PM 42.5031 -81.0394 81° East 448 516 29,000  Level Cleveland Center
06:44PM 42.5031 -81.0394 81° East 448 516 29,000  Level Cleveland Center
06:45PM 42.5225 -80.8706 81° East 454 522 29,000  Level Cleveland Center
06:45PM 42.5225 -80.8706 81° East 454 522 29,000  Level Cleveland Center
06:46PM 42.5414 -80.6931 82° East 466 536 29,000  Level Cleveland Center
06:46PM 42.5414 -80.6931 82° East 466 536 29,000  Level Cleveland Center
06:47PM 42.5644 -80.5100 80° East 461 531 29,000  Level Cleveland Center
06:47PM 42.5644 -80.5100 80° East 461 531 29,000  Level Cleveland Center
06:48PM 42.5850 -80.3378 81° East 466 536 29,000  Level Cleveland Center
06:48PM 42.5850 -80.3378 81° East 466 536 29,000  Level Cleveland Center
06:49PM 42.5992 -80.1600 84° East 466 536 29,000  Level Cleveland Center
06:49PM 42.5992 -80.1600 84° East 466 536 29,000  Level Cleveland Center
06:50PM 42.6192 -79.9878 81° East 458 527 29,000  Level Cleveland Center
06:50PM 42.6192 -79.9878 81° East 458 527 29,000  Level Cleveland Center
06:51PM 42.6411 -79.8156 80° East 458 527 29,000  Level Cleveland Center
06:51PM 42.6411 -79.8156 80° East 458 527 29,000  Level Cleveland Center
06:52PM 42.6586 -79.6431 82° East 463 533 29,000  Level Cleveland Center
06:52PM 42.6586 -79.6431 82° East 463 533 29,000 -300 Level Cleveland Center
06:53PM 42.6758 -79.4706 82° East 463 533 28,700 -300 Descending Cleveland Center
06:53PM 42.6758 -79.4706 82° East 463 533 28,700 -720 Level Cleveland Center
06:54PM 42.6928 -79.2950 82° East 463 533 28,000 -720 Descending Cleveland Center
06:54PM 42.6928 -79.2950 82° East 463 533 28,000 -1,800 Level Cleveland Center
06:55PM 42.7075 -79.1308 83° East 463 533 26,200 -1,800 Descending Cleveland Center
06:55PM 42.7075 -79.1308 83° East 463 533 26,200 -2,400 Level Cleveland Center
06:56PM 42.7261 -78.9694 81° East 443 510 23,800 -2,400 Descending Cleveland Center
06:56PM 42.7261 -78.9694 81° East 443 510 23,800 -840 Level Cleveland Center
06:57PM 42.7383 -78.8050 84° East 438 504 23,000 -840 Descending Cleveland Center
06:57PM 42.7383 -78.8050 84° East 438 504 23,000  Level Cleveland Center
06:58PM 42.7525 -78.6436 83° East 433 498 23,000  Level Cleveland Center
06:58PM 42.7525 -78.6436 83° East 433 498 23,000  Level Cleveland Center
06:59PM 42.7683 -78.4761 83° East 433 498 23,000  Level Cleveland Center
06:59PM 42.7683 -78.4761 83° East 433 498 23,000  Level Cleveland Center
06:59PM 42.7683 -78.4761 83° East 433 498 23,000  Level Cleveland Center
06:59PM 42.7683 -78.4761 83° East 433 498 23,000  Level Cleveland Center
06:59PM 42.7683 -78.4761 83° East 433 498 23,000  Level Cleveland Center
07:00PM 42.7839 -78.3086 83° East 433 498 23,000  Level Cleveland Center
07:01PM 42.7975 -78.1583 83° East 443 510 23,000  Level Cleveland Center
07:02PM 42.8125 -77.9878 83° East 449 517 23,000  Level Cleveland Center
07:03PM 42.8272 -77.8203 83° East 449 517 23,000  Level Cleveland Center
07:04PM 42.8419 -77.6525 83° East 449 517 23,000 -60 Level Cleveland Center
07:05PM 42.8564 -77.4847 83° East 449 517 22,900 -600 Descending Cleveland Center
07:06PM 42.8683 -77.3169 84° East 449 517 21,800 -1,200 Descending Cleveland Center
07:07PM 42.8825 -77.1544 83° East 444 511 20,600 -1,560 Descending Cleveland Center
07:09PM 42.9328 -76.8847 76° East 427 491 17,800 -1,860 Descending Boston Center
07:10PM 42.9628 -76.7506 73° East 404 465 15,800 -2,280 Descending Boston Center
07:11PM 42.9867 -76.6158 76° East 360 414 13,400 -2,220 Descending Boston Center
07:12PM 42.9847 -76.4936 91° East 338 389 11,600 -1,680 Descending Boston Center
07:13PM 42.9889 -76.3775 87° East 302 348 10,200 -1,620 Descending Boston Center
07:14PM 42.9861 -76.2722 92° East 270 311 8,400 -1,920 Descending Boston Center
07:15PM 42.9858 -76.1586 90° East 273 314 6,400 -1,740 Descending Boston Center
07:16PM 42.9869 -76.0594 89° East 264 304 4,900 -1,320 Descending Boston Center
07:17PM 43.0119 -75.9897 64° Northeast 211 243 3,900 -1,200 Descending Boston Center
07:18PM 43.0686 -75.9789 North 201 231 2,600 -1,080 Descending Boston Center
07:19PM 43.1094 -76.0039 336° Northwest 151 174 1,800 -840 Descending Boston Center
07:20PM 43.1100 -76.0608 271° West 129 148 1,000 -840 Descending Boston Center